• Join FlightAware (Why Join?)
  • Login
  • US Flag 
05:06PM EDT


 

Airport Tracker/Info


-or-


 

Live Flight TrackerFlight Track Log ✈ N561AC ✈ 22-Aug-2013 ✈ KPWK - KIND

Flight Track Log - Related Links

Times and Time Zones

All times are in EDT time to prevent confusion due to time zone crossing. See the N561AC flight status page for this flight to view local times or setup timezone preferences in your user account.

Time Position Orientation Groundspeed Altitude Reporting Facility
EDT Latitude Longitude Course Direction KTS MPH feet Rate Location/Type
04:46PM 42.2236 -87.9681 333° Northwest 215 247 7,200  Level Chicago Center
04:47PM 42.2514 -87.8997 61° Northeast 261 300 9,800 2,700 Climbing Chicago Center
04:48PM 42.1803 -87.8639 160° South 277 319 12,900 2,340 Climbing Chicago Center
04:49PM 42.0983 -87.8506 173° South 295 339 14,700 960 Climbing Chicago Center
04:50PM 41.7529 -87.6507 162° South  Level Estimated
04:50PM 42.0028 -87.8283 170° South 346 398 15,000  Level Chicago Center
04:51PM 41.8828 -87.8036 171° South 363 418 15,000 -60 Level Chicago Center
04:52PM 41.7889 -87.7564 159° South 360 414 14,900 -60 Descending Chicago Center
04:53PM 41.6983 -87.7072 158° South 352 405 14,900  Level Chicago Center
04:54PM 41.6064 -87.6550 157° South 355 409 15,000  Climbing Chicago Center
04:55PM 41.5131 -87.6042 158° South 359 413 14,900 -60 Descending Chicago Center
04:56PM 41.4197 -87.5525 157° South 361 415 14,900  Level Chicago Center
04:57PM 41.3253 -87.5011 158° South 365 420 15,000  Climbing Chicago Center
04:58PM 41.2128 -87.4386 157° South 367 422 15,000 -60 Level Chicago Center
04:59PM 41.1208 -87.3900 158° South 358 412 14,900 -60 Descending Chicago Center
05:00PM 41.0317 -87.3406 157° South 351 404 14,900  Level Chicago Center
05:01PM 40.9408 -87.2922 158° South 352 405 14,900  Level Chicago Center
05:03PM 40.8497 -87.2428 158° South 355 409 14,900  Level Chicago Center
05:04PM 40.7417 -87.1839 158° South 351 404 14,900  Level Chicago Center
05:05PM 40.6503 -87.1358 158° South 355 409 14,900  Level Chicago Center
05:06PM 40.5683 -87.0922 158° South 362 417 14,900  Level Chicago Center
05:07PM 40.4553 -87.0322 158° South 366 421 14,900  Level Chicago Center
05:08PM 40.3617 -86.9811 157° South 366 421 14,900 -420 Level Chicago Center
05:09PM 40.2672 -86.9314 158° South 366 421 14,100 -960 Descending Chicago Center
05:10PM 40.1786 -86.8839 158° South 351 404 13,000 -1,020 Descending Chicago Center
05:10PM 40.1219 -86.8142 137° Southeast 351 404 12,400 -1,200 Descending Indianapolis Center
05:12PM 40.0561 -86.7186 132° Southeast 355 409 11,000 -720 Descending Indianapolis Center
05:13PM 39.9947 -86.6286 132° Southeast 341 392 11,000 -120 Level Indianapolis Center
05:14PM 39.9328 -86.5394 132° Southeast 333 383 10,800 -840 Descending Indianapolis Center
05:15PM 39.8722 -86.4522 132° Southeast 329 379 9,300 -1,800 Descending Indianapolis Center
05:16PM 39.7836 -86.4047 158° South 302 348 7,100 -2,040 Descending Indianapolis Center
05:17PM 39.7217 -86.4367 202° Southwest 260 299 5,100 -1,500 Descending Indianapolis Center
05:18PM 39.6731 -86.4653 204° Southwest 225 259 4,000 -1,020 Descending Indianapolis Center
05:19PM 39.6503 -86.4072 117° Southeast 204 235 3,000 -1,140 Descending Indianapolis Center
05:20PM 39.6778 -86.3567 55° Northeast 157 181 1,700 -1,020 Descending Indianapolis Center
05:21PM 39.6994 -86.3294 44° Northeast 129 148 900 -540 Descending Indianapolis Center
05:22PM 39.7175 -86.3072 43° Northeast 118 136 600 -300 Descending Indianapolis Center